createdAt,value
2023-05-12T00:00:19.317Z,6.40
2023-05-12T00:02:47.127Z,5.75
2023-05-12T00:05:15.580Z,5.90
2023-05-12T00:07:42.569Z,5.57
2023-05-12T00:10:09.891Z,5.70
2023-05-12T00:12:36.878Z,5.20
2023-05-12T00:15:04.183Z,5.38
2023-05-12T00:17:32.147Z,5.20
2023-05-12T00:19:59.170Z,5.60
2023-05-12T00:22:26.891Z,5.28
2023-05-12T00:24:53.970Z,5.10
2023-05-12T00:27:21.526Z,5.43
2023-05-12T00:29:48.575Z,4.53
2023-05-12T00:32:15.908Z,5.40
2023-05-12T00:34:43.380Z,5.35
2023-05-12T00:37:10.414Z,5.53
2023-05-12T00:39:38.116Z,4.80
2023-05-12T00:42:05.657Z,5.45
2023-05-12T00:44:32.891Z,4.80
2023-05-12T00:46:59.944Z,5.07
2023-05-12T00:49:27.444Z,5.30
2023-05-12T00:51:55.816Z,4.85
2023-05-12T00:54:23.264Z,5.50
2023-05-12T00:56:50.898Z,5.03
2023-05-12T00:59:18.846Z,6.00
2023-05-12T01:01:46.641Z,4.47
2023-05-12T01:04:14.037Z,5.63
2023-05-12T01:06:41.011Z,5.30
2023-05-12T01:09:08.703Z,5.13
2023-05-12T01:11:36.186Z,5.35
2023-05-12T01:14:04.573Z,4.80
2023-05-12T01:16:43.770Z,5.18
2023-05-12T01:19:20.508Z,4.95
2023-05-12T01:21:47.705Z,5.07
2023-05-12T01:24:14.965Z,5.28
2023-05-12T01:26:42.039Z,4.55
2023-05-12T01:29:09.198Z,5.30
2023-05-12T01:31:36.308Z,5.28
2023-05-12T01:34:03.712Z,5.53
2023-05-12T01:36:31.878Z,4.82
2023-05-12T01:38:59.488Z,5.28
2023-05-12T01:41:26.585Z,5.55
2023-05-12T01:43:53.866Z,5.97
2023-05-12T01:46:21.112Z,5.85
2023-05-12T01:48:48.811Z,5.22
2023-05-12T01:51:16.367Z,5.18
2023-05-12T01:53:43.569Z,6.47
2023-05-12T01:56:11.235Z,5.72
2023-05-12T01:58:39.020Z,5.25
2023-05-12T02:01:06.273Z,5.85
2023-05-12T02:03:33.971Z,5.13
2023-05-12T02:06:01.752Z,5.80
2023-05-12T02:08:29.846Z,5.60
2023-05-12T02:11:07.185Z,5.03
2023-05-12T02:13:35.045Z,5.10
2023-05-12T02:16:02.800Z,4.95
2023-05-12T02:18:30.015Z,5.38
2023-05-12T02:20:57.143Z,5.47
2023-05-12T02:23:24.929Z,5.75
2023-05-12T02:25:52.255Z,5.45
2023-05-12T02:28:19.217Z,5.40
2023-05-12T02:30:48.633Z,5.13
2023-05-12T02:33:19.940Z,5.78
2023-05-12T02:35:47.525Z,5.38
2023-05-12T02:38:14.605Z,5.00
2023-05-12T02:40:42.116Z,5.00
2023-05-12T02:43:09.635Z,5.15
2023-05-12T02:45:36.845Z,4.90
2023-05-12T02:48:04.418Z,4.70
2023-05-12T02:50:31.512Z,4.95
2023-05-12T02:52:58.619Z,4.63
2023-05-12T02:55:25.755Z,4.82
2023-05-12T02:57:52.940Z,4.18
2023-05-12T03:00:20.158Z,5.07
2023-05-12T03:02:47.483Z,4.85
2023-05-12T03:05:14.632Z,4.20
2023-05-12T03:07:41.669Z,4.70
2023-05-12T03:10:10.062Z,4.68
2023-05-12T03:12:37.388Z,4.57
2023-05-12T03:15:06.796Z,4.72
2023-05-12T03:17:33.860Z,4.40
2023-05-12T03:20:00.889Z,4.57
2023-05-12T03:22:27.950Z,5.20
2023-05-12T03:24:57.370Z,4.28
2023-05-12T03:27:25.007Z,4.70
2023-05-12T03:29:52.623Z,4.65
2023-05-12T03:32:19.848Z,5.18
2023-05-12T03:34:46.940Z,5.43
2023-05-12T03:37:17.159Z,5.90
2023-05-12T03:39:45.267Z,4.50
2023-05-12T03:42:12.336Z,5.03
2023-05-12T03:44:41.393Z,4.80
2023-05-12T03:47:09.133Z,4.78
2023-05-12T03:49:37.249Z,4.28
2023-05-12T03:52:04.784Z,5.38
2023-05-12T03:54:31.913Z,5.50
2023-05-12T03:56:59.040Z,5.00
2023-05-12T03:59:27.059Z,4.85
2023-05-12T04:01:54.137Z,4.82
2023-05-12T04:04:22.534Z,5.32
2023-05-12T04:06:49.561Z,6.00
2023-05-12T04:09:16.733Z,5.72
2023-05-12T04:11:43.734Z,5.38
2023-05-12T04:14:10.801Z,5.55
2023-05-12T04:16:38.377Z,5.05
2023-05-12T04:19:05.559Z,5.30
2023-05-12T04:21:33.099Z,5.68
2023-05-12T04:24:00.485Z,5.93
2023-05-12T04:26:33.893Z,5.75
2023-05-12T04:29:01.001Z,5.68
2023-05-12T04:31:28.114Z,5.53
2023-05-12T04:34:01.275Z,5.63
2023-05-12T04:36:29.904Z,5.00
2023-05-12T04:38:57.506Z,5.32
2023-05-12T04:41:27.554Z,5.63
2023-05-12T04:46:27.855Z,6.10
2023-05-12T04:48:58.851Z,5.75
2023-05-12T04:51:25.959Z,5.40
2023-05-12T04:53:53.388Z,5.32
2023-05-12T04:56:22.389Z,7.28
2023-05-12T04:58:50.165Z,5.40
2023-05-12T05:01:17.414Z,5.15
2023-05-12T05:03:44.761Z,5.03
2023-05-12T05:06:12.129Z,5.38
2023-05-12T05:08:39.311Z,4.78
2023-05-12T05:11:07.388Z,4.82
2023-05-12T05:13:35.563Z,4.97
2023-05-12T05:16:02.632Z,4.55
2023-05-12T05:18:31.803Z,4.95
2023-05-12T05:21:06.230Z,4.93
2023-05-12T05:23:33.286Z,5.15
2023-05-12T05:26:02.412Z,4.97
2023-05-12T05:28:31.001Z,5.18
2023-05-12T05:30:58.339Z,5.13
2023-05-12T05:33:27.105Z,4.93
2023-05-12T05:35:54.202Z,5.72
2023-05-12T05:38:21.810Z,7.53
2023-05-12T05:40:53.731Z,8.10
2023-05-12T05:43:23.086Z,6.50
2023-05-12T05:45:51.518Z,6.13
2023-05-12T05:48:20.883Z,5.40
2023-05-12T05:50:48.348Z,5.40
2023-05-12T05:53:15.609Z,5.57
2023-05-12T05:55:43.308Z,4.97
2023-05-12T05:58:10.353Z,5.47
2023-05-12T06:00:38.008Z,5.10
2023-05-12T06:03:05.365Z,4.85
2023-05-12T06:05:32.671Z,4.88
2023-05-12T06:07:59.720Z,4.57
2023-05-12T06:10:26.736Z,4.95
2023-05-12T06:12:55.502Z,4.55
2023-05-12T06:15:22.872Z,4.93
2023-05-12T06:17:50.179Z,4.70
2023-05-12T06:20:18.277Z,4.97
2023-05-12T06:22:46.283Z,5.15
2023-05-12T06:25:13.460Z,4.65
2023-05-12T06:27:40.431Z,5.97
2023-05-12T06:30:08.187Z,5.43
2023-05-12T06:32:36.999Z,4.93
2023-05-12T06:35:06.787Z,4.97
2023-05-12T06:37:33.903Z,4.93
2023-05-12T06:40:01.979Z,4.40
2023-05-12T06:42:29.886Z,4.38
2023-05-12T06:44:56.960Z,4.32
2023-05-12T06:47:24.029Z,4.68
2023-05-12T06:49:51.178Z,4.85
2023-05-12T06:52:20.550Z,5.05
2023-05-12T06:54:48.228Z,4.30
2023-05-12T06:57:15.262Z,4.63
2023-05-12T06:59:42.469Z,4.88
2023-05-12T07:02:09.827Z,3.78
2023-05-12T07:04:36.939Z,2.75
2023-05-12T07:07:04.873Z,3.03
2023-05-12T07:09:34.444Z,2.60
2023-05-12T07:12:01.652Z,2.80
2023-05-12T07:14:28.919Z,3.10
2023-05-12T07:16:56.040Z,3.33
2023-05-12T07:19:22.988Z,3.50
2023-05-12T07:21:49.929Z,2.45
2023-05-12T07:24:16.997Z,2.38
2023-05-12T07:26:44.608Z,2.78
2023-05-12T07:29:13.632Z,2.88
2023-05-12T07:31:41.304Z,2.55
2023-05-12T07:34:08.956Z,2.70
2023-05-12T07:36:35.918Z,2.63
2023-05-12T07:39:03.039Z,2.22
2023-05-12T07:41:31.966Z,2.28
2023-05-12T07:43:59.633Z,2.67
2023-05-12T07:46:27.048Z,2.33
2023-05-12T07:48:54.548Z,2.50
2023-05-12T07:51:21.680Z,2.42
2023-05-12T07:53:48.757Z,2.70
2023-05-12T07:56:15.876Z,2.75
2023-05-12T07:58:43.334Z,2.50
2023-05-12T08:01:11.145Z,2.70
2023-05-12T08:03:41.392Z,2.22
2023-05-12T08:06:10.488Z,2.40
2023-05-12T08:08:37.849Z,2.90
2023-05-12T08:11:05.039Z,3.42
2023-05-12T08:13:32.123Z,3.00
2023-05-12T08:16:06.937Z,4.20
2023-05-12T08:18:36.706Z,3.72
2023-05-12T08:21:03.876Z,3.58
2023-05-12T08:23:30.868Z,3.85
2023-05-12T08:25:58.122Z,3.85
2023-05-12T08:28:25.117Z,4.75
2023-05-12T08:30:52.814Z,4.43
2023-05-12T08:33:19.896Z,4.63
2023-05-12T08:35:47.234Z,4.75
2023-05-12T08:38:14.542Z,4.40
2023-05-12T08:41:06.456Z,4.10
2023-05-12T08:43:52.309Z,4.70
2023-05-12T08:46:20.027Z,4.88
2023-05-12T08:48:47.535Z,4.72
2023-05-12T08:51:14.695Z,4.30
2023-05-12T08:53:42.400Z,4.80
2023-05-12T08:58:42.446Z,5.15
2023-05-12T09:01:11.100Z,5.40
2023-05-12T09:03:39.092Z,4.63
2023-05-12T09:06:06.646Z,4.53
2023-05-12T09:08:35.108Z,4.45
2023-05-12T09:11:02.688Z,5.10
2023-05-12T09:13:50.693Z,4.68
2023-05-12T09:16:26.095Z,4.30
2023-05-12T09:18:55.995Z,4.88
2023-05-12T09:21:23.905Z,4.80
2023-05-12T09:24:06.773Z,4.45
2023-05-12T09:26:47.541Z,4.50
2023-05-12T09:29:21.225Z,4.95
2023-05-12T09:31:58.660Z,4.80
2023-05-12T09:34:33.171Z,4.88
2023-05-12T09:37:01.433Z,5.03
2023-05-12T09:39:29.107Z,5.18
2023-05-12T09:41:56.645Z,5.05
2023-05-12T09:44:24.080Z,5.38
2023-05-12T09:46:51.786Z,4.78
2023-05-12T09:49:23.962Z,4.70
2023-05-12T09:51:53.918Z,4.68
2023-05-12T09:54:31.396Z,5.28
2023-05-12T09:57:03.099Z,4.97
2023-05-12T09:59:32.710Z,5.40
2023-05-12T10:02:00.930Z,5.05
2023-05-12T10:04:39.856Z,5.15
2023-05-12T10:07:11.963Z,4.78
2023-05-12T10:09:42.230Z,5.25
2023-05-12T10:12:10.212Z,5.40
2023-05-12T10:14:37.739Z,5.57
2023-05-12T10:17:05.632Z,5.60
2023-05-12T10:19:33.889Z,5.35
2023-05-12T10:22:00.880Z,5.97
2023-05-12T10:24:28.806Z,5.43
2023-05-12T10:26:56.734Z,5.40
2023-05-12T10:29:32.273Z,4.78
2023-05-12T10:32:01.077Z,5.30
2023-05-12T10:34:34.904Z,5.53
2023-05-12T10:37:04.365Z,5.05
2023-05-12T10:39:33.425Z,5.15
2023-05-12T10:42:10.079Z,5.47
2023-05-12T10:44:37.240Z,4.93
2023-05-12T10:47:16.775Z,5.30
2023-05-12T10:49:44.489Z,5.55
2023-05-12T10:52:12.811Z,5.50
2023-05-12T10:54:44.345Z,5.70
2023-05-12T10:57:21.506Z,5.68
2023-05-12T10:59:59.030Z,5.43
2023-05-12T11:02:34.153Z,5.80
2023-05-12T11:05:37.793Z,5.43
2023-05-12T11:08:05.579Z,5.43
2023-05-12T11:10:33.966Z,4.80
2023-05-12T11:13:01.121Z,4.85
2023-05-12T11:15:28.290Z,4.78
2023-05-12T11:17:58.303Z,4.75
2023-05-12T11:20:26.713Z,4.53
2023-05-12T11:22:55.132Z,4.43
2023-05-12T11:25:22.433Z,4.60
2023-05-12T11:27:52.960Z,4.15
2023-05-12T11:30:20.136Z,4.00
2023-05-12T11:32:49.832Z,3.78
2023-05-12T11:35:19.376Z,3.60
2023-05-12T11:37:46.866Z,4.32
2023-05-12T11:40:17.280Z,3.60
2023-05-12T11:42:48.491Z,3.90
2023-05-12T11:45:23.163Z,3.95
2023-05-12T11:47:52.181Z,3.75
2023-05-12T11:50:25.595Z,3.35
2023-05-12T11:52:52.938Z,3.25
2023-05-12T11:55:23.053Z,3.38
2023-05-12T11:57:59.239Z,3.28
2023-05-12T12:00:33.943Z,3.30
2023-05-12T12:03:12.795Z,3.20
2023-05-12T12:05:40.683Z,3.10
2023-05-12T12:08:15.769Z,3.15
2023-05-12T12:10:46.153Z,3.15
2023-05-12T12:13:22.864Z,2.80
2023-05-12T12:15:50.426Z,2.95
2023-05-12T12:18:18.989Z,2.97
2023-05-12T12:20:47.037Z,2.45
2023-05-12T12:23:14.261Z,2.70
2023-05-12T12:25:41.414Z,2.30
2023-05-12T12:28:08.972Z,2.65
2023-05-12T12:30:37.459Z,2.78
2023-05-12T12:33:05.113Z,2.80
2023-05-12T12:35:32.787Z,2.80
2023-05-12T12:38:00.544Z,2.40
2023-05-12T12:40:27.852Z,2.30
2023-05-12T12:42:55.072Z,3.00
2023-05-12T12:45:22.243Z,2.45
2023-05-12T12:47:52.562Z,2.15
2023-05-12T12:50:19.717Z,2.40
2023-05-12T12:52:48.098Z,2.97
2023-05-12T12:55:15.221Z,2.35
2023-05-12T12:57:42.349Z,2.28
2023-05-12T13:00:10.028Z,2.20
2023-05-12T13:02:37.312Z,2.40
2023-05-12T13:05:06.963Z,2.15
2023-05-12T13:07:34.675Z,2.40
2023-05-12T13:10:03.304Z,2.40
2023-05-12T13:12:31.927Z,2.58
2023-05-12T13:15:01.288Z,2.40
2023-05-12T13:17:29.071Z,2.42
2023-05-12T13:19:56.391Z,2.45
2023-05-12T13:22:24.926Z,2.10
2023-05-12T13:24:54.145Z,2.55
2023-05-12T13:27:21.183Z,2.40
2023-05-12T13:29:48.744Z,2.10
2023-05-12T13:32:16.316Z,2.45
2023-05-12T13:34:45.340Z,2.28
2023-05-12T13:37:12.407Z,2.15
2023-05-12T13:39:39.945Z,2.30
2023-05-12T13:42:07.254Z,2.40
2023-05-12T13:44:34.413Z,2.50
2023-05-12T13:47:01.441Z,2.53
2023-05-12T13:49:28.568Z,2.47
2023-05-12T13:51:55.681Z,2.55
2023-05-12T13:54:24.011Z,2.42
2023-05-12T13:56:51.172Z,2.55
2023-05-12T13:59:18.766Z,2.70
2023-05-12T14:01:45.883Z,2.50
2023-05-12T14:04:13.208Z,2.83
2023-05-12T14:06:40.387Z,2.42
2023-05-12T14:09:07.798Z,2.95
2023-05-12T14:11:34.908Z,2.63
2023-05-12T14:14:03.591Z,2.63
2023-05-12T14:16:30.920Z,2.70
2023-05-12T14:19:00.199Z,2.20
2023-05-12T14:21:27.977Z,2.75
2023-05-12T14:23:55.741Z,3.15
2023-05-12T14:26:25.462Z,2.70
2023-05-12T14:28:53.046Z,2.63
2023-05-12T14:31:20.420Z,3.55
2023-05-12T14:33:47.521Z,3.20
2023-05-12T14:36:14.492Z,2.92
2023-05-12T14:38:41.465Z,3.10
2023-05-12T14:41:08.987Z,2.60
2023-05-12T14:43:35.988Z,3.33
2023-05-12T14:46:04.470Z,2.83
2023-05-12T14:48:31.728Z,2.90
2023-05-12T14:50:58.865Z,2.83
2023-05-12T14:53:26.118Z,2.67
2023-05-12T14:55:53.169Z,2.88
2023-05-12T14:58:24.374Z,2.55
2023-05-12T15:00:51.908Z,2.78
2023-05-12T15:03:22.111Z,2.60
2023-05-12T15:06:04.578Z,3.67
2023-05-12T15:08:32.584Z,2.72
2023-05-12T15:10:59.622Z,2.88
2023-05-12T15:13:26.682Z,2.67
2023-05-12T15:15:55.349Z,2.60
2023-05-12T15:18:26.965Z,2.60
2023-05-12T15:20:54.873Z,2.70
2023-05-12T15:23:22.526Z,2.75
2023-05-12T15:25:49.891Z,2.40
2023-05-12T15:28:17.360Z,2.65
2023-05-12T15:30:45.621Z,2.45
2023-05-12T15:33:12.794Z,2.80
2023-05-12T15:35:40.524Z,2.95
2023-05-12T15:38:08.585Z,3.00
2023-05-12T15:40:35.993Z,3.10
2023-05-12T15:43:05.463Z,2.72
2023-05-12T15:45:33.035Z,2.97
2023-05-12T15:48:00.939Z,2.85
2023-05-12T15:50:29.182Z,3.20
2023-05-12T15:53:07.974Z,2.95
2023-05-12T15:55:35.046Z,3.25
2023-05-12T15:58:03.904Z,3.10
2023-05-12T16:00:31.188Z,3.28
2023-05-12T16:02:58.819Z,3.25
2023-05-12T16:05:26.322Z,3.10
2023-05-12T16:07:54.848Z,2.97
2023-05-12T16:10:22.069Z,3.30
2023-05-12T16:12:49.157Z,3.50
2023-05-12T16:15:16.249Z,3.13
2023-05-12T16:17:44.456Z,3.17
2023-05-12T16:20:12.749Z,3.30
2023-05-12T16:22:40.238Z,3.42
2023-05-12T16:25:07.585Z,3.08
2023-05-12T16:27:36.649Z,3.13
2023-05-12T16:30:04.272Z,3.40
2023-05-12T16:32:32.232Z,2.90
2023-05-12T16:35:00.769Z,3.30
2023-05-12T16:37:28.962Z,3.55
2023-05-12T16:39:56.395Z,3.28
2023-05-12T16:42:23.712Z,3.67
2023-05-12T16:44:57.037Z,3.58
2023-05-12T16:47:25.125Z,3.72
2023-05-12T16:49:53.530Z,3.42
2023-05-12T16:52:20.987Z,3.50
2023-05-12T16:54:50.776Z,3.33
2023-05-12T16:57:18.768Z,3.65
2023-05-12T16:59:46.024Z,3.88
2023-05-12T17:02:13.334Z,3.53
2023-05-12T17:04:40.579Z,3.58
2023-05-12T17:07:07.726Z,3.70
2023-05-12T17:09:34.792Z,4.45
2023-05-12T17:12:01.844Z,3.72
2023-05-12T17:14:29.379Z,3.78
2023-05-12T17:16:56.468Z,4.28
2023-05-12T17:19:23.817Z,3.88
2023-05-12T17:21:50.812Z,4.50
2023-05-12T17:24:20.872Z,4.70
2023-05-12T17:26:48.267Z,4.90
2023-05-12T17:29:15.224Z,4.88
2023-05-12T17:31:43.681Z,3.90
2023-05-12T17:34:10.747Z,4.55
2023-05-12T17:36:38.048Z,4.63
2023-05-12T17:39:05.988Z,4.65
2023-05-12T17:41:33.111Z,4.30
2023-05-12T17:44:00.605Z,4.55
2023-05-12T17:46:27.697Z,5.07
2023-05-12T17:48:55.150Z,5.10
2023-05-12T17:51:22.775Z,5.38
2023-05-12T17:53:49.741Z,5.03
2023-05-12T17:56:17.148Z,4.72
2023-05-12T17:58:44.152Z,5.15
2023-05-12T18:01:11.211Z,5.22
2023-05-12T18:03:38.765Z,4.50
2023-05-12T18:06:06.488Z,5.10
2023-05-12T18:08:37.829Z,4.95
2023-05-12T18:11:05.496Z,4.82
2023-05-12T18:13:32.553Z,4.88
2023-05-12T18:15:59.787Z,5.35
2023-05-12T18:18:26.898Z,5.20
2023-05-12T18:20:54.191Z,5.68
2023-05-12T18:23:22.118Z,5.60
2023-05-12T18:25:49.756Z,5.47
2023-05-12T18:28:16.824Z,5.10
2023-05-12T18:30:44.838Z,4.60
2023-05-12T18:33:11.917Z,4.72
2023-05-12T18:35:39.374Z,4.72
2023-05-12T18:38:07.194Z,5.30
2023-05-12T18:40:34.760Z,5.07
2023-05-12T18:43:02.357Z,4.95
2023-05-12T18:45:29.939Z,4.65
2023-05-12T18:47:57.577Z,4.63
2023-05-12T18:50:24.878Z,5.13
2023-05-12T18:52:51.999Z,4.20
2023-05-12T18:55:19.191Z,4.53
2023-05-12T18:57:54.021Z,5.10
2023-05-12T19:00:27.592Z,4.18
2023-05-12T19:02:55.218Z,4.32
2023-05-12T19:05:28.651Z,4.18
2023-05-12T19:07:55.992Z,4.33
2023-05-12T19:10:23.425Z,4.43
2023-05-12T19:12:51.055Z,4.28
2023-05-12T19:15:18.262Z,4.28
2023-05-12T19:17:45.733Z,4.32
2023-05-12T19:20:14.128Z,4.82
2023-05-12T19:22:42.062Z,4.60
2023-05-12T19:25:09.457Z,4.78
2023-05-12T19:27:36.520Z,4.95
2023-05-12T19:30:05.349Z,4.63
2023-05-12T19:32:32.979Z,5.18
2023-05-12T19:35:00.999Z,4.60
2023-05-12T19:37:29.893Z,4.93
2023-05-12T19:39:58.241Z,5.00
2023-05-12T19:42:26.168Z,4.30
2023-05-12T19:44:53.256Z,5.03
2023-05-12T19:47:24.995Z,4.68
2023-05-12T19:49:55.964Z,5.25
2023-05-12T19:52:26.222Z,4.75
2023-05-12T19:54:54.411Z,5.43
2023-05-12T19:57:23.026Z,5.53
2023-05-12T19:59:52.929Z,5.10
2023-05-12T20:02:20.015Z,5.75
2023-05-12T20:04:47.108Z,5.15
2023-05-12T20:07:14.194Z,4.50
2023-05-12T20:09:41.325Z,6.43
2023-05-12T20:12:08.958Z,4.97
2023-05-12T20:14:44.915Z,5.43
2023-05-12T20:17:12.695Z,5.65
2023-05-12T20:19:39.739Z,6.65
2023-05-12T20:22:06.802Z,6.15
2023-05-12T20:24:33.824Z,7.05
2023-05-12T20:27:00.788Z,7.70
2023-05-12T20:29:29.807Z,4.88
2023-05-12T20:31:56.865Z,5.20
2023-05-12T20:34:23.877Z,7.18
2023-05-12T20:36:51.026Z,6.13
2023-05-12T20:39:18.366Z,6.65
2023-05-12T20:41:45.352Z,6.22
2023-05-12T20:44:12.561Z,6.55
2023-05-12T20:46:39.751Z,6.60
2023-05-12T20:49:07.790Z,4.38
2023-05-12T20:51:35.812Z,5.22
2023-05-12T20:54:03.480Z,4.68
2023-05-12T20:56:30.895Z,6.22
2023-05-12T20:58:58.066Z,4.55
2023-05-12T21:01:26.296Z,5.47
2023-05-12T21:03:53.739Z,7.20
2023-05-12T21:06:20.711Z,5.32
2023-05-12T21:08:47.878Z,7.55
2023-05-12T21:11:16.121Z,5.38
2023-05-12T21:13:47.030Z,6.53
2023-05-12T21:16:16.992Z,6.45
2023-05-12T21:18:44.170Z,4.93
2023-05-12T21:21:11.298Z,5.43
2023-05-12T21:23:38.419Z,6.43
2023-05-12T21:26:05.461Z,6.07
2023-05-12T21:28:32.517Z,5.50
2023-05-12T21:30:59.477Z,6.18
2023-05-12T21:33:26.713Z,5.22
2023-05-12T21:35:53.846Z,7.40
2023-05-12T21:38:21.380Z,8.18
2023-05-12T21:40:54.935Z,6.15
2023-05-12T21:43:22.563Z,5.93
2023-05-12T21:45:49.514Z,7.40
2023-05-12T21:48:16.629Z,5.38
2023-05-12T21:50:43.677Z,5.40
2023-05-12T21:53:10.772Z,6.38
2023-05-12T21:55:37.874Z,4.90
2023-05-12T21:58:05.507Z,4.60
2023-05-12T22:00:33.686Z,6.40
2023-05-12T22:03:01.096Z,4.80
2023-05-12T22:05:28.164Z,5.20
2023-05-12T22:07:55.473Z,4.85
2023-05-12T22:10:23.039Z,8.95
2023-05-12T22:12:50.052Z,9.02
2023-05-12T22:15:18.218Z,7.20
2023-05-12T22:17:48.654Z,6.05
2023-05-12T22:20:17.260Z,4.80
2023-05-12T22:22:44.483Z,6.45
2023-05-12T22:25:11.491Z,5.95
2023-05-12T22:27:39.691Z,8.93
2023-05-12T22:30:07.431Z,5.18
2023-05-12T22:32:45.657Z,6.07
2023-05-12T22:35:12.726Z,7.57
2023-05-12T22:37:40.459Z,8.68
2023-05-12T22:40:08.181Z,5.10
2023-05-12T22:42:35.856Z,8.80
2023-05-12T22:45:04.754Z,9.02
2023-05-12T22:47:32.364Z,8.80
2023-05-12T22:50:00.006Z,5.95
2023-05-12T22:52:27.126Z,8.13
2023-05-12T22:54:57.301Z,6.78
2023-05-12T22:57:25.547Z,8.43
2023-05-12T22:59:52.774Z,6.40
2023-05-12T23:02:21.858Z,10.73
2023-05-12T23:04:49.044Z,7.22
2023-05-12T23:07:38.781Z,6.90
2023-05-12T23:10:06.896Z,7.72
2023-05-12T23:12:33.924Z,9.77
2023-05-12T23:15:01.076Z,11.80
2023-05-12T23:17:28.134Z,7.85
2023-05-12T23:19:56.760Z,5.78
2023-05-12T23:22:24.220Z,7.88
2023-05-12T23:24:52.464Z,6.43
2023-05-12T23:27:19.496Z,7.10
2023-05-12T23:29:46.549Z,10.05
2023-05-12T23:32:16.678Z,6.72
2023-05-12T23:34:46.491Z,7.43
2023-05-12T23:37:13.615Z,7.68
2023-05-12T23:39:40.572Z,8.23
2023-05-12T23:42:07.802Z,5.88
2023-05-12T23:44:35.549Z,6.75
2023-05-12T23:47:20.174Z,7.80
2023-05-12T23:49:48.146Z,6.50
2023-05-12T23:52:15.381Z,13.07
2023-05-12T23:54:42.415Z,9.20
2023-05-12T23:57:09.918Z,6.28
2023-05-12T23:59:37.321Z,5.95
